Time;durP1;ratioP1;P1;durP2;ratioP2;P2;SDS_P1;SDS_P2;PMS_P1;PMS_P2;Temp;Humidity;BMP_temperature;BMP_pressure;BME280_temperature;BME280_humidity;BME280_pressure;Samples;Min_cycle;Max_cycle;Signal;HPM_P1;HPM_P2
2023/09/25 00:00:45;;;;;;;0.50;0.40;;;;;;;;;;5093934;28;20434;-71
2023/09/25 00:03:11;;;;;;;0.55;0.32;;;;;;;;;;5094029;28;20080;-72
2023/09/25 00:05:37;;;;;;;0.73;0.40;;;;;;;;;;5093814;28;20040;-71
2023/09/25 00:08:03;;;;;;;0.50;0.43;;;;;;;;;;5093731;28;20028;-71
2023/09/25 00:10:31;;;;;;;0.77;0.57;;;;;;;;;;5093945;28;20047;-71
2023/09/25 00:12:57;;;;;;;0.35;0.30;;;;;;;;;;5093603;28;20032;-71
2023/09/25 00:15:23;;;;;;;0.55;0.35;;;;;;;;;;5093525;28;20474;-71
2023/09/25 00:17:50;;;;;;;0.65;0.50;;;;;;;;;;5093802;28;20028;-72
2023/09/25 00:20:19;;;;;;;0.82;0.60;;;;;;;;;;5093380;28;20034;-71
2023/09/25 00:22:45;;;;;;;0.77;0.50;;;;;;;;;;5093456;28;20020;-71
2023/09/25 00:25:12;;;;;;;0.50;0.50;;;;;;;;;;5093335;28;20032;-71
2023/09/25 00:27:38;;;;;;;0.57;0.40;;;;;;;;;;5093229;28;20043;-71
2023/09/25 00:30:08;;;;;;;1.20;0.73;;;;;;;;;;5093223;28;20145;-71
2023/09/25 00:32:34;;;;;;;0.80;0.65;;;;;;;;;;5093475;28;20031;-72
2023/09/25 00:35:00;;;;;;;0.80;0.68;;;;;;;;;;5093389;28;20035;-73
2023/09/25 00:37:27;;;;;;;0.43;0.43;;;;;;;;;;5093322;28;20327;-73
2023/09/25 00:39:53;;;;;;;0.60;0.32;;;;;;;;;;5093974;28;20512;-73
2023/09/25 00:42:19;;;;;;;1.02;0.63;;;;;;;;;;5093176;28;20040;-72
2023/09/25 00:44:45;;;;;;;0.60;0.60;;;;;;;;;;5093000;28;20138;-72
2023/09/25 00:47:11;;;;;;;1.70;0.93;;;;;;;;;;5092944;28;20031;-71
2023/09/25 00:49:37;;;;;;;1.38;0.50;;;;;;;;;;5092227;28;20032;-71
2023/09/25 00:52:04;;;;;;;0.90;0.50;;;20.50;67.00;;;;;;5093018;28;20367;-71
2023/09/25 00:54:33;;;;;;;0.80;0.60;;;20.50;70.00;;;;;;5092834;28;20541;-72
2023/09/25 00:56:59;;;;;;;0.40;0.30;;;;;;;;;;5092791;28;20414;-71
2023/09/25 00:59:26;;;;;;;0.50;0.40;;;20.50;69.80;;;;;;5092752;28;20367;-71
2023/09/25 01:01:52;;;;;;;0.95;0.70;;;;;;;;;;5092929;28;20448;-72
2023/09/25 01:04:18;;;;;;;1.10;0.50;;;;;;;;;;5092715;28;20118;-72
2023/09/25 01:06:44;;;;;;;0.95;0.60;;;;;;;;;;5092905;28;20433;-72
2023/09/25 01:09:12;;;;;;;1.08;0.35;;;;;;;;;;5093125;28;20024;-71
2023/09/25 01:11:39;;;;;;;0.98;0.50;;;;;;;;;;5092377;28;20040;-71
2023/09/25 01:14:05;;;;;;;0.80;0.80;;;;;;;;;;5092490;28;20024;-71
2023/09/25 01:16:31;;;;;;;0.77;0.57;;;;;;;;;;5092392;28;20107;-71
2023/09/25 01:18:57;;;;;;;0.65;0.50;;;;;;;;;;5092430;28;20100;-72
2023/09/25 01:21:25;;;;;;;0.85;0.40;;;20.30;70.10;;;;;;5092311;28;20080;-71
2023/09/25 01:23:51;;;;;;;0.40;0.40;;;;;;;;;;5092595;28;20081;-71
2023/09/25 01:26:17;;;;;;;0.80;0.80;;;;;;;;;;5092267;28;20048;-71
2023/09/25 01:28:43;;;;;;;0.88;0.50;;;;;;;;;;5092176;28;20505;-71
2023/09/25 01:31:09;;;;;;;0.65;0.57;;;;;;;;;;5092234;28;20032;-71
2023/09/25 01:33:36;;;;;;;0.90;0.50;;;;;;;;;;5092416;28;20039;-72
2023/09/25 01:36:03;;;;;;;0.50;0.43;;;;;;;;;;5093008;28;20060;-72
2023/09/25 01:38:29;;;;;;;0.60;0.50;;;;;;;;;;5092411;28;20024;-72
2023/09/25 01:40:56;;;;;;;0.80;0.50;;;;;;;;;;5092399;28;20043;-72
2023/09/25 01:43:22;;;;;;;0.75;0.60;;;;;;;;;;5092122;28;20035;-72
2023/09/25 01:45:48;;;;;;;1.50;0.75;;;;;;;;;;5092391;28;20069;-72
2023/09/25 01:48:15;;;;;;;0.77;0.50;;;;;;;;;;5092444;28;20023;-71
2023/09/25 01:50:43;;;;;;;0.70;0.60;;;;;;;;;;5091909;28;20031;-71
2023/09/25 01:53:09;;;;;;;0.82;0.45;;;;;;;;;;5092242;28;20032;-71
2023/09/25 01:55:36;;;;;;;0.70;0.40;;;;;;;;;;5091854;28;20039;-71
2023/09/25 01:58:08;;;;;;;0.60;0.50;;;20.30;64.90;;;;;;5091830;28;20035;-72
2023/09/25 02:00:35;;;;;;;0.68;0.68;;;;;;;;;;5091233;28;20372;-71
2023/09/25 02:03:02;;;;;;;0.98;0.60;;;;;;;;;;5091744;28;20058;-71
2023/09/25 02:05:28;;;;;;;0.70;0.60;;;;;;;;;;5092632;28;20028;-72
2023/09/25 02:07:55;;;;;;;0.77;0.70;;;;;;;;;;5092129;28;20031;-71
2023/09/25 02:10:21;;;;;;;0.63;0.52;;;;;;;;;;5091983;28;20031;-71
2023/09/25 02:12:48;;;;;;;0.70;0.60;;;;;;;;;;5091669;28;20035;-72
2023/09/25 02:15:14;;;;;;;0.60;0.50;;;;;;;;;;5092025;28;20024;-71
2023/09/25 02:17:41;;;;;;;0.70;0.70;;;;;;;;;;5091800;28;20136;-71
2023/09/25 02:20:17;;;;;;;0.65;0.55;;;;;;;;;;5091672;28;20036;-72
2023/09/25 02:22:47;;;;;;;0.40;0.40;;;20.20;67.50;;;;;;5091961;28;20372;-72
2023/09/25 02:25:14;;;;;;;0.80;0.60;;;;;;;;;;5091616;28;20012;-72
2023/09/25 02:27:40;;;;;;;1.15;0.45;;;;;;;;;;5091454;28;20052;-72
2023/09/25 02:30:10;;;;;;;1.30;0.50;;;20.10;64.40;;;;;;5091519;28;20036;-72
2023/09/25 02:32:36;;;;;;;;;;;20.10;70.40;;;;;;5092095;28;20111;-72
2023/09/25 02:35:02;;;;;;;0.50;0.50;;;;;;;;;;5091904;28;20359;-72
2023/09/25 02:37:32;;;;;;;1.02;0.50;;;20.00;70.10;;;;;;5091524;28;20044;-72
2023/09/25 02:39:58;;;;;;;0.77;0.40;;;;;;;;;;5091685;28;20051;-72
2023/09/25 02:42:24;;;;;;;0.70;0.55;;;;;;;;;;5091603;28;20032;-71
2023/09/25 02:44:51;;;;;;;0.68;0.65;;;;;;;;;;5091623;28;20028;-72
2023/09/25 02:47:18;;;;;;;1.02;0.50;;;;;;;;;;5091328;28;20035;-71
2023/09/25 02:49:44;;;;;;;0.50;0.40;;;;;;;;;;5091182;28;20088;-71
2023/09/25 02:52:10;;;;;;;0.70;0.43;;;;;;;;;;5091161;28;20028;-71
2023/09/25 02:54:37;;;;;;;0.65;0.60;;;;;;;;;;5091470;28;20028;-71
2023/09/25 02:57:03;;;;;;;0.80;0.50;;;;;;;;;;5091538;28;20036;-71
2023/09/25 02:59:30;;;;;;;0.60;0.40;;;;;;;;;;5091447;28;20077;-71
2023/09/25 03:01:56;;;;;;;1.23;0.65;;;;;;;;;;5091844;28;20024;-71
2023/09/25 03:04:23;;;;;;;0.68;0.43;;;;;;;;;;5091387;28;20028;-71
2023/09/25 03:06:50;;;;;;;1.30;0.70;;;;;;;;;;5091455;28;20066;-72
2023/09/25 03:09:17;;;;;;;0.60;0.40;;;;;;;;;;5091031;28;20698;-71
2023/09/25 03:11:43;;;;;;;1.10;0.60;;;;;;;;;;5091926;28;20483;-71
2023/09/25 03:14:10;;;;;;;0.70;0.60;;;;;;;;;;5094842;28;20024;-71
2023/09/25 03:16:36;;;;;;;0.88;0.70;;;;;;;;;;5094946;28;20383;-72
2023/09/25 03:19:03;;;;;;;1.23;0.60;;;;;;;;;;5094640;28;20510;-71
2023/09/25 03:21:29;;;;;;;0.93;0.50;;;;;;;;;;5094577;28;20486;-71
2023/09/25 03:23:55;;;;;;;0.55;0.50;;;;;;;;;;5094876;28;20356;-72
2023/09/25 03:26:22;;;;;;;0.80;0.80;;;;;;;;;;5094481;28;20055;-72
2023/09/25 03:28:49;;;;;;;0.88;0.60;;;19.90;67.10;;;;;;5095011;28;20036;-72
2023/09/25 03:31:15;;;;;;;0.70;0.57;;;;;;;;;;5094886;28;20035;-72
2023/09/25 03:33:41;;;;;;;0.75;0.63;;;;;;;;;;5094449;28;20039;-72
2023/09/25 03:36:08;;;;;;;0.82;0.60;;;;;;;;;;5094532;28;20040;-72
2023/09/25 03:38:36;;;;;;;0.63;0.55;;;19.80;69.70;;;;;;5094815;28;20054;-72
2023/09/25 03:41:02;;;;;;;0.88;0.63;;;;;;;;;;5094587;28;20076;-72
2023/09/25 03:43:28;;;;;;;0.55;0.55;;;;;;;;;;5094332;28;20036;-72
2023/09/25 03:45:54;;;;;;;0.80;0.50;;;19.80;67.40;;;;;;5094233;28;20028;-72
2023/09/25 03:48:21;;;;;;;1.00;0.40;;;;;;;;;;5094564;28;20031;-72
2023/09/25 03:50:47;;;;;;;0.63;0.57;;;;;;;;;;5094322;28;20405;-72
2023/09/25 03:53:14;;;;;;;0.50;0.40;;;;;;;;;;5094398;28;20024;-72
2023/09/25 03:55:40;;;;;;;1.13;0.65;;;;;;;;;;5094307;28;20028;-72
2023/09/25 03:58:12;;;;;;;0.75;0.47;;;19.80;64.90;;;;;;5094365;28;20027;-71
2023/09/25 04:06:48;;;;;;;0.93;0.57;;;19.70;64.40;;;;;;5060259;28;20051;-73
2023/09/25 04:09:14;;;;;;;1.00;0.57;;;;;;;;;;5053616;28;20521;-73
2023/09/25 04:11:41;;;;;;;0.90;0.75;;;;;;;;;;5053174;28;20491;-73
2023/09/25 04:14:07;;;;;;;1.30;0.73;;;;;;;;;;5053190;28;20037;-73
2023/09/25 04:16:33;;;;;;;0.77;0.60;;;;;;;;;;5053231;28;20032;-72
2023/09/25 04:18:59;;;;;;;0.90;0.80;;;;;;;;;;5053100;28;20029;-73
2023/09/25 04:21:25;;;;;;;1.15;0.63;;;;;;;;;;5053098;28;20032;-73
2023/09/25 04:23:51;;;;;;;0.65;0.65;;;;;;;;;;5052053;28;20021;-73
2023/09/25 04:26:17;;;;;;;0.60;0.60;;;;;;;;;;5052936;28;20104;-73
2023/09/25 04:28:44;;;;;;;1.65;0.73;;;;;;;;;;5052895;28;20116;-73
2023/09/25 04:31:11;;;;;;;0.80;0.80;;;;;;;;;;5052812;28;20119;-73
2023/09/25 04:33:38;;;;;;;1.17;0.60;;;;;;;;;;5052759;28;20039;-72
2023/09/25 04:36:08;;;;;;;0.65;0.65;;;;;;;;;;5053275;28;20060;-72
2023/09/25 04:38:35;;;;;;;0.60;0.50;;;;;;;;;;5053012;28;20029;-73
2023/09/25 04:41:01;;;;;;;0.55;0.45;;;;;;;;;;5052627;28;20291;-72
2023/09/25 04:43:27;;;;;;;1.00;0.85;;;;;;;;;;5052592;28;20094;-73
2023/09/25 04:45:55;;;;;;;0.93;0.70;;;;;;;;;;5052524;28;20036;-73
2023/09/25 04:48:21;;;;;;;0.68;0.68;;;;;;;;;;5052578;28;20379;-73
2023/09/25 04:50:47;;;;;;;0.70;0.70;;;;;;;;;;5052373;28;20041;-73
2023/09/25 04:53:13;;;;;;;0.77;0.60;;;;;;;;;;5052484;28;20066;-72
2023/09/25 04:55:39;;;;;;;0.65;0.52;;;;;;;;;;5052643;28;20028;-73
2023/09/25 04:58:06;;;;;;;1.23;0.60;;;;;;;;;;5052207;28;20029;-73
2023/09/25 05:00:32;;;;;;;1.00;0.70;;;;;;;;;;5052299;28;20029;-73
2023/09/25 05:02:58;;;;;;;0.73;0.70;;;;;;;;;;5065695;28;20155;-73
2023/09/25 05:05:25;;;;;;;1.05;0.73;;;;;;;;;;5072559;28;20033;-73
2023/09/25 05:07:52;;;;;;;1.30;0.80;;;19.50;69.70;;;;;;5072014;28;20107;-73
2023/09/25 05:10:26;;;;;;;1.00;0.80;;;19.50;64.80;;;;;;5071958;28;20037;-73
2023/09/25 05:12:52;;;;;;;0.73;0.50;;;19.50;68.70;;;;;;5071941;28;20052;-73
2023/09/25 05:15:19;;;;;;;1.20;0.70;;;;;;;;;;5071920;28;20130;-73
2023/09/25 05:17:46;;;;;;;0.90;0.60;;;19.50;70.00;;;;;;5072085;28;20114;-73
2023/09/25 05:20:18;;;;;;;0.63;0.60;;;19.70;70.60;;;;;;5071737;28;20042;-73
2023/09/25 05:22:46;;;;;;;0.50;0.40;;;19.50;70.50;;;;;;5054536;28;20025;-73
2023/09/25 05:25:13;;;;;;;1.67;0.95;;;19.50;67.70;;;;;;5071883;28;20447;-73
2023/09/25 05:27:41;;;;;;;1.10;0.50;;;19.40;70.30;;;;;;5073055;28;20055;-72
2023/09/25 05:30:09;;;;;;;0.70;0.65;;;19.50;70.50;;;;;;5076210;28;20036;-76
2023/09/25 05:32:45;;;;;;;0.75;0.50;;;19.40;67.80;;;;;;5072145;28;20115;-75
2023/09/25 05:35:12;;;;;;;0.98;0.85;;;;;;;;;;5071425;28;20021;-74
2023/09/25 05:37:40;;;;;;;1.13;0.90;;;19.40;70.40;;;;;;5071929;28;20479;-76
2023/09/25 05:40:10;;;;;;;0.77;0.73;;;;;;;;;;5071785;28;20020;-75
2023/09/25 05:42:43;;;;;;;1.40;0.88;;;19.40;70.60;;;;;;5071596;28;20077;-73
2023/09/25 05:45:11;;;;;;;0.82;0.70;;;19.30;69.40;;;;;;5071974;28;20390;-74
2023/09/25 05:47:38;;;;;;;1.00;0.73;;;;;;;;;;5071829;28;20027;-73
2023/09/25 05:50:07;;;;;;;0.80;0.80;;;;;;;;;;5071544;28;20037;-75
2023/09/25 05:52:34;;;;;;;3.65;0.75;;;;;;;;;;5071369;28;20036;-73
2023/09/25 05:55:01;;;;;;;1.00;0.55;;;19.30;69.90;;;;;;5071312;28;20107;-74
2023/09/25 05:57:28;;;;;;;1.13;0.80;;;;;;;;;;5071518;28;20074;-75
2023/09/25 05:59:55;;;;;;;1.83;0.80;;;;;;;;;;5071596;28;20090;-73
2023/09/25 06:02:21;;;;;;;0.95;0.60;;;;;;;;;;5071604;28;20502;-73
2023/09/25 06:04:48;;;;;;;1.13;0.50;;;;;;;;;;5071481;28;20036;-85
2023/09/25 06:07:14;;;;;;;1.25;0.60;;;;;;;;;;5071694;28;20025;-74
2023/09/25 06:09:41;;;;;;;0.85;0.70;;;;;;;;;;5071365;28;20132;-75
2023/09/25 06:12:09;;;;;;;0.85;0.50;;;;;;;;;;5071607;28;20040;-74
2023/09/25 06:14:35;;;;;;;2.10;0.70;;;;;;;;;;5071688;28;20024;-75
2023/09/25 06:17:02;;;;;;;1.13;0.70;;;;;;;;;;5071652;28;20059;-76
2023/09/25 06:19:28;;;;;;;0.70;0.70;;;;;;;;;;5071550;28;20036;-76
2023/09/25 06:21:55;;;;;;;0.63;0.63;;;;;;;;;;5071535;28;20025;-75
2023/09/25 06:24:21;;;;;;;1.45;0.90;;;;;;;;;;5071317;28;20028;-76
2023/09/25 06:26:48;;;;;;;1.10;0.65;;;;;;;;;;5071135;28;20174;-75
2023/09/25 06:29:15;;;;;;;1.27;0.70;;;;;;;;;;5071904;28;20040;-76
2023/09/25 06:31:41;;;;;;;1.08;0.80;;;19.20;70.50;;;;;;5071353;28;20047;-76
2023/09/25 06:34:08;;;;;;;0.55;0.55;;;;;;;;;;5071358;28;20023;-76
2023/09/25 06:36:35;;;;;;;0.52;0.50;;;;;;;;;;5071332;28;20439;-76
2023/09/25 06:39:01;;;;;;;1.92;0.80;;;;;;;;;;5071317;28;20031;-75
2023/09/25 06:41:27;;;;;;;0.57;0.57;;;;;;;;;;5070969;28;20082;-75
2023/09/25 06:43:57;;;;;;;2.88;0.90;;;;;;;;;;5071016;28;20025;-74
2023/09/25 06:46:23;;;;;;;2.35;1.27;;;;;;;;;;5071349;28;20402;-73
2023/09/25 06:48:50;;;;;;;2.83;0.73;;;;;;;;;;5074983;28;20024;-75
2023/09/25 06:51:17;;;;;;;1.17;0.82;;;19.20;70.40;;;;;;5074620;28;20557;-76
2023/09/25 06:53:43;;;;;;;1.25;0.70;;;;;;;;;;5074911;28;20108;-75
2023/09/25 06:56:10;;;;;;;1.38;1.00;;;;;;;;;;5074889;28;20103;-76
2023/09/25 06:58:36;;;;;;;0.80;0.60;;;;;;;;;;5075009;28;20041;-75
2023/09/25 07:01:03;;;;;;;3.35;0.70;;;;;;;;;;5075022;28;20411;-75
2023/09/25 07:03:30;;;;;;;0.85;0.70;;;;;;;;;;5074402;28;20098;-75
2023/09/25 07:05:57;;;;;;;2.25;0.60;;;;;;;;;;5074801;28;20029;-75
2023/09/25 07:08:25;;;;;;;0.90;0.70;;;;;;;;;;5075035;28;20032;-75
2023/09/25 07:10:52;;;;;;;1.02;0.88;;;;;;;;;;5074390;28;20040;-76
2023/09/25 07:13:20;;;;;;;1.30;0.68;;;17.80;70.40;;;;;;5074555;28;20052;-75
2023/09/25 07:15:47;;;;;;;1.65;0.85;;;;;;;;;;5074660;28;20036;-76
2023/09/25 07:18:13;;;;;;;1.23;0.50;;;19.20;68.60;;;;;;5074530;28;20025;-76
2023/09/25 07:20:40;;;;;;;1.38;0.82;;;;;;;;;;5074586;28;20039;-75
2023/09/25 07:23:06;;;;;;;1.75;0.80;;;;;;;;;;5074488;28;20028;-75
2023/09/25 07:25:33;;;;;;;2.38;0.82;;;;;;;;;;5074142;28;20035;-76
2023/09/25 07:27:59;;;;;;;0.88;0.60;;;;;;;;;;5074507;28;20082;-76
2023/09/25 07:30:26;;;;;;;1.13;0.70;;;;;;;;;;5074328;28;20068;-76
2023/09/25 07:32:52;;;;;;;0.80;0.68;;;;;;;;;;5074155;28;20115;-76
2023/09/25 07:35:19;;;;;;;3.65;0.70;;;;;;;;;;5074429;28;20028;-76
2023/09/25 07:37:47;;;;;;;0.70;0.63;;;;;;;;;;5074344;28;20078;-75
2023/09/25 07:40:14;;;;;;;0.88;0.77;;;;;;;;;;5074094;28;20037;-75
2023/09/25 07:42:42;;;;;;;1.10;0.80;;;19.30;69.40;;;;;;5074244;28;20433;-75
2023/09/25 07:45:22;;;;;;;1.10;0.70;;;19.20;68.00;;;;;;5073866;28;20509;-76
2023/09/25 07:47:48;;;;;;;0.70;0.70;;;;;;;;;;5074241;28;20100;-76
2023/09/25 07:50:19;;;;;;;0.73;0.50;;;;;;;;;;5074039;28;20036;-76
2023/09/25 07:52:45;;;;;;;0.90;0.70;;;;;;;;;;5073845;28;20024;-76
2023/09/25 07:55:11;;;;;;;1.10;0.55;;;;;;;;;;5073797;28;20027;-76
2023/09/25 07:57:42;;;;;;;1.38;0.60;;;19.20;69.30;;;;;;5073713;28;20048;-76
2023/09/25 08:00:12;;;;;;;1.42;0.80;;;19.10;68.80;;;;;;5073889;28;20094;-76
2023/09/25 08:02:39;;;;;;;0.60;0.50;;;;;;;;;;5073414;28;20039;-76
2023/09/25 08:05:06;;;;;;;0.60;0.50;;;19.20;70.10;;;;;;5073777;28;20402;-76
2023/09/25 08:07:33;;;;;;;1.30;0.60;;;;;;;;;;5073568;28;20232;-76
2023/09/25 08:10:00;;;;;;;1.48;0.55;;;;;;;;;;5073390;28;20103;-76
2023/09/25 08:12:26;;;;;;;1.40;0.93;;;;;;;;;;5074020;28;20040;-76
2023/09/25 08:14:52;;;;;;;1.02;0.73;;;;;;;;;;5073349;28;20522;-76
2023/09/25 08:17:18;;;;;;;3.28;1.00;;;;;;;;;;5073321;28;20063;-76
2023/09/25 08:19:44;;;;;;;1.35;0.80;;;;;;;;;;5073198;28;20047;-76
2023/09/25 08:22:10;;;;;;;2.05;0.70;;;;;;;;;;5073218;28;20032;-76
2023/09/25 08:24:36;;;;;;;1.25;0.70;;;;;;;;;;5073609;28;20032;-74
2023/09/25 08:27:04;;;;;;;1.90;0.90;;;;;;;;;;5073322;28;20048;-73
2023/09/25 08:29:30;;;;;;;1.67;1.20;;;;;;;;;;5072943;28;20029;-73
2023/09/25 08:31:57;;;;;;;2.33;0.93;;;;;;;;;;5073079;28;20383;-76
2023/09/25 08:34:22;;;;;;;1.73;0.90;;;;;;;;;;5072841;28;20034;-76
2023/09/25 08:36:48;;;;;;;2.65;1.00;;;;;;;;;;5072828;28;20028;-75
2023/09/25 08:39:15;;;;;;;1.50;1.00;;;;;;;;;;5072858;28;20479;-77
2023/09/25 08:41:41;;;;;;;3.50;1.10;;;;;;;;;;5073299;28;20061;-76
2023/09/25 08:44:08;;;;;;;1.40;0.82;;;19.40;71.20;;;;;;5072630;28;20039;-76
2023/09/25 08:46:35;;;;;;;2.83;1.27;;;;;;;;;;5072656;28;20417;-77
2023/09/25 08:49:02;;;;;;;2.88;0.85;;;;;;;;;;5072478;28;20020;-76
2023/09/25 08:51:34;;;;;;;3.65;0.88;;;19.50;72.30;;;;;;5072587;28;20036;-75
2023/09/25 08:54:00;;;;;;;2.10;1.20;;;;;;;;;;5072470;28;20470;-76
2023/09/25 08:56:26;;;;;;;1.63;0.85;;;;;;;;;;5072425;28;20043;-76
2023/09/25 08:58:52;;;;;;;2.08;1.08;;;;;;;;;;5072397;28;20047;-76
2023/09/25 09:01:18;;;;;;;1.50;1.10;;;;;;;;;;5072395;28;20103;-75
2023/09/25 09:03:45;;;;;;;1.45;0.90;;;;;;;;;;5072167;28;20067;-76
2023/09/25 09:06:11;;;;;;;3.90;1.00;;;;;;;;;;5072553;28;20028;-76
2023/09/25 09:08:37;;;;;;;2.70;1.10;;;;;;;;;;5072807;28;20032;-75
2023/09/25 09:11:10;;;;;;;1.27;0.98;;;19.50;72.50;;;;;;5071635;28;20067;-75
2023/09/25 09:13:47;;;;;;;1.20;0.75;;;19.70;67.10;;;;;;5072205;28;20029;-76
2023/09/25 09:16:14;;;;;;;2.65;1.00;;;19.70;72.70;;;;;;5072136;28;20056;-76
2023/09/25 09:18:40;;;;;;;1.75;1.25;;;;;;;;;;5072063;28;20040;-76
2023/09/25 09:21:24;;;;;;;3.97;1.15;;;19.70;72.90;;;;;;5071834;28;20539;-76
2023/09/25 09:23:54;;;;;;;3.67;1.40;;;19.80;70.40;;;;;;5072099;28;20387;-76
2023/09/25 09:26:20;;;;;;;4.10;1.43;;;;;;;;;;5072117;28;20085;-76
2023/09/25 09:28:47;;;;;;;1.77;1.00;;;;;;;;;;5071793;28;20028;-76
2023/09/25 09:31:17;;;;;;;4.15;1.10;;;19.90;67.20;;;;;;5071903;28;20414;-76
2023/09/25 09:33:44;;;;;;;2.58;1.20;;;;;;;;;;5071849;28;20443;-76
2023/09/25 09:36:12;;;;;;;4.45;1.40;;;19.90;72.70;;;;;;5071972;28;20036;-76
2023/09/25 09:38:39;;;;;;;1.98;1.10;;;;;;;;;;5072659;28;20065;-76
2023/09/25 09:41:06;;;;;;;1.92;1.05;;;;;;;;;;5071910;28;20036;-76
2023/09/25 09:43:33;;;;;;;2.58;1.17;;;;;;;;;;5071783;28;20462;-76
2023/09/25 09:46:02;;;;;;;1.25;1.15;;;20.10;67.10;;;;;;5071773;28;20458;-76
2023/09/25 09:48:31;;;;;;;1.65;1.35;;;20.00;66.70;;;;;;5071973;28;20029;-76
2023/09/25 09:51:03;;;;;;;1.58;0.98;;;19.90;66.60;;;;;;5071982;28;20033;-77
2023/09/25 09:53:36;;;;;;;3.28;1.05;;;20.20;72.40;;;;;;5054280;28;20089;-77
2023/09/25 09:56:03;;;;;;;3.08;1.48;;;;;;;;;;5053822;28;20036;-76
2023/09/25 09:58:30;;;;;;;2.38;1.23;;;;;;;;;;5054126;28;20025;-76
2023/09/25 10:00:57;;;;;;;2.25;1.08;;;20.40;71.00;;;;;;5071981;28;20060;-76
2023/09/25 10:03:24;;;;;;;1.45;1.17;;;20.50;72.20;;;;;;5053354;28;20068;-76
2023/09/25 10:05:53;;;;;;;1.27;1.17;;;20.50;70.30;;;;;;5054490;28;20040;-76
2023/09/25 10:08:21;;;;;;;1.92;1.23;;;;;;;;;;5053762;28;20040;-76
2023/09/25 10:10:53;;;;;;;1.83;1.20;;;20.60;66.40;;;;;;5054174;28;20127;-76
2023/09/25 10:13:37;;;;;;;3.53;1.20;;;20.70;72.00;;;;;;5055242;28;20551;-76
2023/09/25 10:16:04;;;;;;;1.73;1.20;;;;;;;;;;5053512;28;20286;-76
2023/09/25 10:18:31;;;;;;;2.88;1.60;;;;;;;;;;5053730;28;20035;-77
2023/09/25 10:21:14;;;;;;;1.75;1.17;;;20.80;66.30;;;;;;5053820;28;20028;-76
2023/09/25 10:23:43;;;;;;;1.45;1.08;;;20.90;71.90;;;;;;5057579;28;20517;-77
2023/09/25 10:26:21;;;;;;;2.20;1.48;;;20.90;66.30;;;;;;5057854;28;20079;-77
2023/09/25 10:29:13;;;;;;;1.35;1.00;;;21.10;66.20;;;;;;5058195;28;20039;-77
2023/09/25 10:31:47;;;;;;;2.63;1.27;;;21.10;71.90;;;;;;5075489;28;20035;-77
2023/09/25 10:34:14;;;;;;;3.03;1.58;;;21.20;69.80;;;;;;5058366;28;20090;-77
2023/09/25 10:36:42;;;;;;;3.08;1.13;;;21.30;71.50;;;;;;5057653;28;20032;-78
2023/09/25 10:39:13;;;;;;;1.30;0.93;;;21.40;71.20;;;;;;5057457;28;20063;-79
2023/09/25 10:41:41;;;;;;;2.20;1.48;;;;;;;;;;5058404;28;20043;-76
2023/09/25 10:44:09;;;;;;;1.88;1.40;;;;;;;;;;5057616;28;20028;-76
2023/09/25 10:46:36;;;;;;;2.20;1.35;;;;;;;;;;5057735;28;20479;-78
2023/09/25 10:49:02;;;;;;;2.03;1.00;;;;;;;;;;5057593;28;20441;-78
2023/09/25 10:51:29;;;;;;;2.70;1.23;;;;;;;;;;5056992;28;20044;-78
2023/09/25 10:53:56;;;;;;;1.58;1.13;;;;;;;;;;5074847;28;20033;-78
2023/09/25 10:56:22;;;;;;;3.75;1.25;;;;;;;;;;5075030;28;20032;-78
2023/09/25 10:58:52;;;;;;;1.90;1.20;;;21.90;70.40;;;;;;5075122;28;20173;-78
2023/09/25 11:01:18;;;;;;;;;;;;;;;;;;5075141;28;20540;-78
2023/09/25 11:03:45;;;;;;;1.30;1.02;;;;;;;;;;5075112;28;19916;-78
2023/09/25 11:06:11;;;;;;;5.15;1.63;;;;;;;;;;5074714;28;20482;-76
2023/09/25 11:08:38;;;;;;;1.58;1.00;;;;;;;;;;5074616;28;20020;-78
2023/09/25 11:11:06;;;;;;;1.73;1.13;;;;;;;;;;5074540;28;20040;-78
2023/09/25 11:13:32;;;;;;;1.30;0.93;;;;;;;;;;5074835;28;20036;-77
2023/09/25 11:16:00;;;;;;;1.25;0.95;;;;;;;;;;5074916;28;20043;-74
2023/09/25 11:18:27;;;;;;;2.38;0.98;;;;;;;;;;5074390;28;20054;-73
2023/09/25 11:20:53;;;;;;;1.58;1.17;;;;;;;;;;5074382;28;20032;-73
2023/09/25 11:23:20;;;;;;;1.90;1.08;;;;;;;;;;5074274;28;20063;-73
2023/09/25 11:25:48;;;;;;;1.88;0.95;;;22.40;70.80;;;;;;5074484;28;20090;-73
2023/09/25 11:28:17;;;;;;;1.20;0.80;;;22.40;70.50;;;;;;5074547;28;20056;-73
2023/09/25 11:30:46;;;;;;;0.98;0.88;;;;;;;;;;5074813;28;20033;-72
2023/09/25 11:33:18;;;;;;;2.27;1.27;;;22.60;69.90;;;;;;5073821;28;20024;-73
2023/09/25 11:35:45;;;;;;;1.73;1.35;;;22.70;67.40;;;;;;5074387;28;20020;-73
2023/09/25 11:38:17;;;;;;;2.05;1.00;;;22.80;63.70;;;;;;5074046;28;20046;-73
2023/09/25 11:40:44;;;;;;;0.77;0.77;;;22.90;66.70;;;;;;5073996;28;20478;-73
2023/09/25 11:43:12;;;;;;;1.73;0.90;;;22.90;67.60;;;;;;5074051;28;20016;-73
2023/09/25 11:45:41;;;;;;;0.75;0.73;;;22.90;63.60;;;;;;5073901;28;20047;-73
2023/09/25 11:48:11;;;;;;;1.17;0.77;;;22.90;63.50;;;;;;5074486;28;20312;-73
2023/09/25 11:50:39;;;;;;;1.05;0.95;;;;;;;;;;5073969;28;20040;-73
2023/09/25 11:53:06;;;;;;;0.80;0.60;;;;;;;;;;5073801;28;20510;-73
2023/09/25 11:55:33;;;;;;;1.55;0.95;;;;;;;;;;5073922;28;20025;-73
2023/09/25 11:57:59;;;;;;;1.40;0.88;;;;;;;;;;5073632;28;20474;-73
2023/09/25 12:00:29;;;;;;;1.10;0.77;;;;;;;;;;5074196;28;20043;-73
2023/09/25 12:02:55;;;;;;;1.20;0.85;;;;;;;;;;5073265;28;20518;-73
2023/09/25 12:05:21;;;;;;;1.00;0.90;;;;;;;;;;5073657;28;20025;-73
2023/09/25 12:07:48;;;;;;;1.15;1.05;;;;;;;;;;5073473;28;20025;-73
2023/09/25 12:10:17;;;;;;;1.33;0.90;;;;;;;;;;5073402;28;20035;-73
2023/09/25 12:12:44;;;;;;;1.42;0.93;;;22.40;71.40;;;;;;5073790;28;20130;-73
2023/09/25 12:15:14;;;;;;;1.63;1.05;;;22.40;71.30;;;;;;5073439;28;20024;-73
2023/09/25 12:17:41;;;;;;;1.15;0.88;;;;;;;;;;5073313;28;20016;-73
2023/09/25 12:20:14;;;;;;;1.10;1.00;;;21.90;70.50;;;;;;5073261;28;20032;-73
2023/09/25 12:22:41;;;;;;;2.63;1.13;;;22.80;70.90;;;;;;5073533;28;20336;-73
2023/09/25 12:25:14;;;;;;;0.93;0.88;;;22.90;65.00;;;;;;5073204;28;20437;-73
2023/09/25 12:27:42;;;;;;;1.67;1.08;;;23.10;70.00;;;;;;5073748;28;20195;-76
2023/09/25 12:30:10;;;;;;;0.98;0.80;;;23.20;70.30;;;;;;5055025;28;20024;-76
2023/09/25 12:32:37;;;;;;;1.35;1.00;;;23.30;66.20;;;;;;5072997;28;20035;-76
2023/09/25 12:35:03;;;;;;;1.30;1.20;;;;;;;;;;5072925;28;20025;-76
2023/09/25 12:37:29;;;;;;;1.13;0.73;;;;;;;;;;5072992;28;20086;-76
2023/09/25 12:39:55;;;;;;;1.88;1.30;;;;;;;;;;5073200;28;20031;-77
2023/09/25 12:42:21;;;;;;;1.90;0.88;;;;;;;;;;5072896;28;20103;-76
2023/09/25 12:44:48;;;;;;;1.13;0.88;;;;;;;;;;5072217;28;20491;-76
2023/09/25 12:47:17;;;;;;;0.80;0.80;;;24.00;68.00;;;;;;5072771;28;20025;-77
2023/09/25 12:49:44;;;;;;;0.80;0.80;;;;;;;;;;5072744;28;20029;-77
2023/09/25 12:52:10;;;;;;;1.08;0.82;;;;;;;;;;5072644;28;20304;-77
2023/09/25 12:54:36;;;;;;;1.40;1.00;;;;;;;;;;5072673;28;20033;-77
2023/09/25 12:57:02;;;;;;;0.68;0.65;;;;;;;;;;5073127;28;20035;-77
2023/09/25 12:59:28;;;;;;;1.10;1.00;;;;;;;;;;5072547;28;20029;-76
2023/09/25 13:01:54;;;;;;;1.63;1.10;;;;;;;;;;5072116;28;20039;-76
2023/09/25 13:04:20;;;;;;;1.77;1.10;;;;;;;;;;5072505;28;20036;-76
2023/09/25 13:06:50;;;;;;;2.60;1.25;;;;;;;;;;5072498;28;20491;-76
2023/09/25 13:09:16;;;;;;;;;;;24.20;68.20;;;;;;5073298;28;20541;-76
2023/09/25 13:11:44;;;;;;;2.30;0.90;;;;;;;;;;5072327;28;20050;-76
2023/09/25 13:14:10;;;;;;;0.85;0.75;;;;;;;;;;5072556;28;20431;-76
2023/09/25 13:16:37;;;;;;;2.05;1.00;;;;;;;;;;5072570;28;20040;-77
2023/09/25 13:19:04;;;;;;;1.35;1.20;;;;;;;;;;5072334;28;20029;-76
2023/09/25 13:21:30;;;;;;;0.98;0.70;;;;;;;;;;5072538;28;20028;-76
2023/09/25 13:23:56;;;;;;;3.13;1.35;;;;;;;;;;5072365;28;20059;-77
2023/09/25 13:26:24;;;;;;;1.30;0.90;;;24.70;66.60;;;;;;5072749;28;20028;-77
2023/09/25 13:28:52;;;;;;;1.13;0.90;;;24.70;65.00;;;;;;5072228;28;20013;-76
2023/09/25 13:31:19;;;;;;;0.70;0.70;;;;;;;;;;5072440;28;20048;-76
2023/09/25 13:33:46;;;;;;;1.77;0.90;;;24.80;63.70;;;;;;5072305;28;20050;-76
2023/09/25 13:36:13;;;;;;;1.77;0.90;;;;;;;;;;5071878;28;20052;-77
2023/09/25 13:38:40;;;;;;;1.23;0.80;;;;;;;;;;5072152;28;20032;-78
2023/09/25 13:41:06;;;;;;;1.30;1.00;;;;;;;;;;5071996;28;20043;-77
2023/09/25 13:43:40;;;;;;;1.27;1.17;;;25.00;65.90;;;;;;5072064;28;20029;-77
2023/09/25 13:46:06;;;;;;;1.67;0.98;;;;;;;;;;5071776;28;20024;-77
2023/09/25 13:48:35;;;;;;;1.35;0.95;;;;;;;;;;5071991;28;20035;-77
2023/09/25 13:51:06;;;;;;;1.83;1.02;;;25.10;66.20;;;;;;5071856;28;20032;-76
2023/09/25 13:53:34;;;;;;;1.67;1.10;;;25.00;66.30;;;;;;5072137;28;20029;-76
2023/09/25 13:56:02;;;;;;;4.63;1.20;;;25.00;65.30;;;;;;5071447;28;20024;-77
2023/09/25 13:58:28;;;;;;;1.20;0.98;;;;;;;;;;5071579;28;20078;-77
2023/09/25 14:00:55;;;;;;;1.60;0.80;;;;;;;;;;5071460;28;20064;-76
2023/09/25 14:03:22;;;;;;;1.00;0.90;;;;;;;;;;5071352;28;20086;-77
2023/09/25 14:05:48;;;;;;;3.63;1.00;;;24.70;66.50;;;;;;5071572;28;20123;-75
2023/09/25 14:08:15;;;;;;;1.13;0.93;;;;;;;;;;5073969;28;20418;-77
2023/09/25 14:10:42;;;;;;;1.35;0.80;;;;;;;;;;5072017;28;20379;-77
2023/09/25 14:13:09;;;;;;;0.90;0.77;;;;;;;;;;5071693;28;20024;-78
2023/09/25 14:15:36;;;;;;;1.45;1.00;;;;;;;;;;5071663;28;20025;-76
2023/09/25 14:18:03;;;;;;;1.33;1.00;;;;;;;;;;5071588;28;20044;-76